createdAt,value
2023-02-06T00:00:27.378Z,103259.09
2023-02-06T00:02:42.980Z,103265.97
2023-02-06T00:04:40.362Z,103261.66
2023-02-06T00:06:38.558Z,103265.97
2023-02-06T00:08:34.452Z,103264.25
2023-02-06T00:10:30.091Z,103276.31
2023-02-06T00:12:26.823Z,103271.13
2023-02-06T00:14:22.626Z,103286.63
2023-02-06T00:16:20.520Z,103284.94
2023-02-06T00:18:15.658Z,103290.94
2023-02-06T00:20:16.826Z,103291.81
2023-02-06T00:22:19.550Z,103299.56
2023-02-06T00:24:14.956Z,103297.84
2023-02-06T00:26:10.841Z,103301.28
2023-02-06T00:28:06.267Z,103301.28
2023-02-06T00:30:04.911Z,103308.19
2023-02-06T00:32:01.127Z,103302.16
2023-02-06T00:33:56.220Z,103302.13
2023-02-06T00:35:51.631Z,103298.69
2023-02-06T00:37:49.307Z,103299.56
2023-02-06T00:39:46.599Z,103297.84
2023-02-06T00:41:41.590Z,103296.13
2023-02-06T00:43:40.565Z,103303.00
2023-02-06T00:45:35.819Z,103297.84
2023-02-06T00:47:31.197Z,103297.00
2023-02-06T00:49:26.449Z,103288.38
2023-02-06T00:51:21.509Z,103289.22
2023-02-06T00:53:20.218Z,103292.69
2023-02-06T00:55:18.149Z,103288.38
2023-02-06T00:57:15.382Z,103299.56
2023-02-06T00:59:10.444Z,103296.97
2023-02-06T01:01:06.328Z,103296.13
2023-02-06T01:03:03.326Z,103292.69
2023-02-06T01:04:58.442Z,103290.94
2023-02-06T01:06:55.381Z,103296.97
2023-02-06T01:08:54.176Z,103293.53
2023-02-06T01:10:50.555Z,103296.97
2023-02-06T01:12:47.584Z,103290.09
2023-02-06T01:14:45.304Z,103291.81
2023-02-06T01:16:40.386Z,103292.69
2023-02-06T01:18:46.683Z,103284.06
2023-02-06T01:20:42.704Z,103285.78
2023-02-06T01:22:44.663Z,103282.34
2023-02-06T01:24:45.577Z,103293.56
2023-02-06T01:26:46.400Z,103298.72
2023-02-06T01:28:43.166Z,103298.72
2023-02-06T01:30:44.634Z,103300.44
2023-02-06T01:32:44.151Z,103291.81
2023-02-06T01:34:39.514Z,103294.41
2023-02-06T01:36:35.842Z,103295.25
2023-02-06T01:38:31.115Z,103284.06
2023-02-06T01:40:28.853Z,103281.47
2023-02-06T01:42:25.963Z,103284.06
2023-02-06T01:44:34.010Z,103287.50
2023-02-06T01:46:41.604Z,103270.31
2023-02-06T01:48:41.024Z,103266.84
2023-02-06T01:50:38.518Z,103259.09
2023-02-06T01:52:39.839Z,103255.66
2023-02-06T01:54:36.432Z,103259.94
2023-02-06T01:56:38.724Z,103256.50
2023-02-06T01:58:39.090Z,103253.06
2023-02-06T02:00:40.354Z,103251.31
2023-02-06T02:02:40.206Z,103264.22
2023-02-06T02:04:36.589Z,103244.44
2023-02-06T02:06:32.579Z,103245.28
2023-02-06T02:08:36.469Z,103241.88
2023-02-06T02:10:33.044Z,103234.13
2023-02-06T02:12:31.424Z,103233.25
2023-02-06T02:14:26.661Z,103247.03
2023-02-06T02:16:30.685Z,103248.75
2023-02-06T02:18:40.485Z,103240.09
2023-02-06T02:20:53.828Z,103239.25
2023-02-06T02:23:06.102Z,103232.38
2023-02-06T02:25:30.510Z,103234.94
2023-02-06T02:27:55.084Z,103220.31
2023-02-06T02:30:26.195Z,103217.75
2023-02-06T02:32:47.137Z,103212.56
2023-02-06T02:35:08.056Z,103213.44
2023-02-06T02:37:13.009Z,103200.53
2023-02-06T02:39:18.090Z,103201.41
2023-02-06T02:41:18.518Z,103197.94
2023-02-06T02:43:20.792Z,103203.97
2023-02-06T02:45:22.059Z,103197.06
2023-02-06T02:47:20.708Z,103190.19
2023-02-06T02:49:18.536Z,103198.78
2023-02-06T02:51:17.016Z,103203.97
2023-02-06T02:53:13.216Z,103200.47
2023-02-06T02:55:18.462Z,103189.31
2023-02-06T02:57:20.311Z,103188.47
2023-02-06T02:59:23.748Z,103186.75
2023-02-06T03:01:23.962Z,103187.59
2023-02-06T03:03:23.406Z,103191.03
2023-02-06T03:05:24.353Z,103189.31
2023-02-06T03:07:35.391Z,103191.03
2023-02-06T03:09:43.732Z,103191.03
2023-02-06T03:11:44.453Z,103192.75
2023-02-06T03:13:45.212Z,103192.78
2023-02-06T03:15:58.040Z,103190.19
2023-02-06T03:18:01.625Z,103202.25
2023-02-06T03:20:00.026Z,103205.66
2023-02-06T03:22:05.026Z,103208.28
2023-02-06T03:24:05.906Z,103205.69
2023-02-06T03:26:05.834Z,103196.22
2023-02-06T03:28:02.076Z,103197.97
2023-02-06T03:29:58.972Z,103197.09
2023-02-06T03:31:58.094Z,103190.22
2023-02-06T03:34:01.729Z,103182.47
2023-02-06T03:35:58.054Z,103181.63
2023-02-06T03:37:53.533Z,103183.34
2023-02-06T03:39:51.349Z,103178.13
2023-02-06T03:41:48.375Z,103175.56
2023-02-06T03:43:46.176Z,103171.28
2023-02-06T03:45:46.322Z,103177.28
2023-02-06T03:47:42.873Z,103185.91
2023-02-06T03:49:42.036Z,103183.34
2023-02-06T03:51:43.076Z,103185.06
2023-02-06T03:53:40.668Z,103183.34
2023-02-06T03:55:41.549Z,103189.34
2023-02-06T03:57:38.542Z,103189.34
2023-02-06T03:59:34.517Z,103194.50
2023-02-06T04:01:30.483Z,103192.78
2023-02-06T04:03:25.874Z,103196.22
2023-02-06T04:05:22.316Z,103196.25
2023-02-06T04:07:21.537Z,103192.81
2023-02-06T04:09:16.770Z,103194.53
2023-02-06T04:11:14.977Z,103204.00
2023-02-06T04:13:10.169Z,103204.00
2023-02-06T04:15:06.227Z,103200.56
2023-02-06T04:17:01.383Z,103205.69
2023-02-06T04:18:56.991Z,103203.97
2023-02-06T04:20:52.517Z,103197.94
2023-02-06T04:22:48.363Z,103197.09
2023-02-06T04:24:43.913Z,103196.25
2023-02-06T04:26:42.095Z,103178.16
2023-02-06T04:28:37.388Z,103167.81
2023-02-06T04:30:35.491Z,103165.25
2023-02-06T04:32:30.794Z,103160.09
2023-02-06T04:34:26.634Z,103157.50
2023-02-06T04:36:21.997Z,103153.22
2023-02-06T04:38:17.962Z,103150.63
2023-02-06T04:40:14.880Z,103152.31
2023-02-06T04:42:13.077Z,103142.00
2023-02-06T04:44:08.484Z,103154.06
2023-02-06T04:46:04.224Z,103147.19
2023-02-06T04:47:59.643Z,103140.28
2023-02-06T04:49:55.214Z,103142.88
2023-02-06T04:51:50.448Z,103147.16
2023-02-06T04:53:47.152Z,103152.31
2023-02-06T04:55:42.391Z,103156.63
2023-02-06T04:57:41.100Z,103164.38
2023-02-06T04:59:36.394Z,103160.06
2023-02-06T05:01:32.031Z,103166.97
2023-02-06T05:03:29.578Z,103164.38
2023-02-06T05:05:25.155Z,103163.50
2023-02-06T05:07:20.529Z,103153.19
2023-02-06T05:09:16.369Z,103150.59
2023-02-06T05:11:11.657Z,103148.88
2023-02-06T05:13:09.582Z,103153.19
2023-02-06T05:15:04.610Z,103157.50
2023-02-06T05:16:59.953Z,103158.34
2023-02-06T05:18:57.112Z,103171.25
2023-02-06T05:20:52.360Z,103170.38
2023-02-06T05:22:47.385Z,103152.31
2023-02-06T05:24:42.659Z,103152.31
2023-02-06T05:26:37.629Z,103154.03
2023-02-06T05:28:36.025Z,103156.59
2023-02-06T05:30:31.644Z,103156.56
2023-02-06T05:32:27.310Z,103157.47
2023-02-06T05:34:22.225Z,103157.47
2023-02-06T05:36:17.637Z,103154.91
2023-02-06T05:38:12.505Z,103154.00
2023-02-06T05:40:08.686Z,103149.72
2023-02-06T05:42:03.728Z,103143.69
2023-02-06T05:44:01.641Z,103140.25
2023-02-06T05:45:56.564Z,103141.09
2023-02-06T05:47:52.256Z,103151.44
2023-02-06T05:49:48.325Z,103142.84
2023-02-06T05:51:43.695Z,103142.84
2023-02-06T05:53:38.984Z,103153.16
2023-02-06T05:55:34.592Z,103153.16
2023-02-06T05:57:29.736Z,103152.28
2023-02-06T05:59:27.667Z,103154.03
2023-02-06T06:01:22.603Z,103155.75
2023-02-06T06:03:17.852Z,103162.63
2023-02-06T06:05:12.890Z,103162.63
2023-02-06T06:07:08.320Z,103161.78
2023-02-06T06:09:03.976Z,103172.09
2023-02-06T06:11:01.761Z,103177.28
2023-02-06T06:12:57.118Z,103175.53
2023-02-06T06:14:54.991Z,103186.72
2023-02-06T06:16:49.963Z,103189.28
2023-02-06T06:18:45.399Z,103190.13
2023-02-06T06:20:40.436Z,103189.22
2023-02-06T06:22:35.794Z,103188.38
2023-02-06T06:24:30.754Z,103193.56
2023-02-06T06:26:26.238Z,103193.56
2023-02-06T06:28:21.324Z,103189.28
2023-02-06T06:30:19.729Z,103180.66
2023-02-06T06:32:14.828Z,103186.72
2023-02-06T06:34:10.172Z,103195.31
2023-02-06T06:36:05.220Z,103192.75
2023-02-06T06:38:00.229Z,103186.75
2023-02-06T06:39:55.472Z,103184.97
2023-02-06T06:41:50.438Z,103182.38
2023-02-06T06:43:45.882Z,103184.97
2023-02-06T06:45:43.478Z,103190.13
2023-02-06T06:47:39.138Z,103191.84
2023-02-06T06:49:34.136Z,103184.06
2023-02-06T06:51:30.160Z,103183.19
2023-02-06T06:53:25.682Z,103181.50
2023-02-06T06:55:21.471Z,103187.53
2023-02-06T06:57:16.410Z,103182.34
2023-02-06T06:59:11.684Z,103176.34
2023-02-06T07:01:09.381Z,103172.00
2023-02-06T07:03:04.731Z,103177.16
2023-02-06T07:05:00.393Z,103176.31
2023-02-06T07:06:55.769Z,103171.13
2023-02-06T07:08:50.652Z,103166.78
2023-02-06T07:10:46.025Z,103167.66
2023-02-06T07:12:41.459Z,103164.22
2023-02-06T07:14:36.631Z,103166.00
2023-02-06T07:16:34.852Z,103163.41
2023-02-06T07:18:29.882Z,103166.81
2023-02-06T07:20:25.178Z,103171.13
2023-02-06T07:22:20.337Z,103160.81
2023-02-06T07:24:15.677Z,103169.41
2023-02-06T07:26:10.931Z,103171.09
2023-02-06T07:28:13.087Z,103178.88
2023-02-06T07:30:37.336Z,103181.47
2023-02-06T07:32:41.646Z,103182.31
2023-02-06T07:34:38.100Z,103177.13
2023-02-06T07:36:33.511Z,103178.00
2023-02-06T07:38:30.835Z,103173.69
2023-02-06T07:40:44.110Z,103172.91
2023-02-06T07:42:39.914Z,103172.06
2023-02-06T07:44:37.632Z,103172.91
2023-02-06T07:46:33.205Z,103175.53
2023-02-06T07:48:31.266Z,103170.31
2023-02-06T07:50:26.317Z,103173.78
2023-02-06T07:52:22.419Z,103169.47
2023-02-06T07:54:18.956Z,103170.31
2023-02-06T07:56:17.817Z,103166.88
2023-02-06T07:58:13.460Z,103159.13
2023-02-06T08:00:10.676Z,103157.41
2023-02-06T08:02:05.705Z,103164.34
2023-02-06T08:04:04.044Z,103160.91
2023-02-06T08:05:59.148Z,103163.50
2023-02-06T08:07:54.386Z,103166.91
2023-02-06T08:09:59.172Z,103165.13
2023-02-06T08:11:56.319Z,103166.00
2023-02-06T08:13:51.630Z,103175.44
2023-02-06T08:15:46.678Z,103179.75
2023-02-06T08:17:42.772Z,103174.56
2023-02-06T08:19:40.412Z,103171.06
2023-02-06T08:21:39.172Z,103175.34
2023-02-06T08:23:38.655Z,103172.72
2023-02-06T08:25:34.086Z,103179.56
2023-02-06T08:27:29.633Z,103173.53
2023-02-06T08:29:25.069Z,103169.19
2023-02-06T08:31:22.975Z,103164.91
2023-02-06T08:33:18.027Z,103164.06
2023-02-06T08:35:15.958Z,103160.63
2023-02-06T08:37:11.057Z,103164.03
2023-02-06T08:39:07.464Z,103170.03
2023-02-06T08:41:02.372Z,103163.09
2023-02-06T08:42:57.289Z,103157.06
2023-02-06T08:44:53.838Z,103162.25
2023-02-06T08:46:56.191Z,103158.78
2023-02-06T08:49:00.514Z,103159.59
2023-02-06T08:51:19.474Z,103169.06
2023-02-06T08:53:14.734Z,103172.47
2023-02-06T08:55:10.406Z,103174.19
2023-02-06T08:57:07.529Z,103164.63
2023-02-06T08:59:04.780Z,103162.91
2023-02-06T09:01:00.562Z,103160.34
2023-02-06T09:02:55.924Z,103156.00
2023-02-06T09:04:51.287Z,103146.41
2023-02-06T09:06:49.722Z,103145.66
2023-02-06T09:08:45.464Z,103147.38
2023-02-06T09:10:40.462Z,103152.50
2023-02-06T09:12:35.706Z,103161.13
2023-02-06T09:14:30.792Z,103161.00
2023-02-06T09:16:28.040Z,103157.63
2023-02-06T09:18:23.376Z,103163.59
2023-02-06T09:20:19.204Z,103158.31
2023-02-06T09:22:17.411Z,103160.94
2023-02-06T09:24:13.008Z,103174.69
2023-02-06T09:26:09.123Z,103185.94
2023-02-06T09:28:04.328Z,103189.34
2023-02-06T09:29:59.528Z,103191.06
2023-02-06T09:31:55.840Z,103203.09
2023-02-06T09:33:51.118Z,103195.28
2023-02-06T09:35:46.161Z,103197.03
2023-02-06T09:37:44.045Z,103197.84
2023-02-06T09:39:39.230Z,103201.25
2023-02-06T09:41:40.395Z,103209.84
2023-02-06T09:43:37.166Z,103216.72
2023-02-06T09:45:35.353Z,103212.34
2023-02-06T09:47:32.945Z,103208.88
2023-02-06T09:49:32.347Z,103207.94
2023-02-06T09:51:40.375Z,103211.31
2023-02-06T09:53:48.999Z,103206.94
2023-02-06T09:55:46.954Z,103213.00
2023-02-06T09:57:48.915Z,103202.63
2023-02-06T09:59:50.319Z,103207.81
2023-02-06T10:01:52.207Z,103205.19
2023-02-06T10:04:02.146Z,103206.03
2023-02-06T10:06:06.908Z,103204.25
2023-02-06T10:08:13.905Z,103213.69
2023-02-06T10:10:19.084Z,103215.41
2023-02-06T10:12:21.245Z,103212.81
2023-02-06T10:14:23.776Z,103222.34
2023-02-06T10:16:32.608Z,103219.84
2023-02-06T10:18:34.807Z,103218.09
2023-02-06T10:20:36.844Z,103231.84
2023-02-06T10:22:36.707Z,103231.84
2023-02-06T10:24:37.683Z,103235.31
2023-02-06T10:26:49.241Z,103230.94
2023-02-06T10:28:47.117Z,103236.09
2023-02-06T10:31:02.027Z,103226.66
2023-02-06T10:33:07.904Z,103219.72
2023-02-06T10:35:22.392Z,103226.59
2023-02-06T10:37:37.289Z,103220.44
2023-02-06T10:40:00.230Z,103230.91
2023-02-06T10:42:06.847Z,103222.25
2023-02-06T10:44:07.672Z,103211.81
2023-02-06T10:46:19.957Z,103215.22
2023-02-06T10:48:31.586Z,103209.94
2023-02-06T10:50:31.495Z,103209.91
2023-02-06T10:52:29.331Z,103206.47
2023-02-06T10:54:33.457Z,103208.19
2023-02-06T10:56:32.506Z,103213.38
2023-02-06T10:58:35.845Z,103216.06
2023-02-06T11:00:37.054Z,103226.44
2023-02-06T11:02:41.879Z,103221.19
2023-02-06T11:04:40.826Z,103228.19
2023-02-06T11:06:36.371Z,103216.81
2023-02-06T11:08:36.335Z,103213.38
2023-02-06T11:10:32.311Z,103221.16
2023-02-06T11:12:34.238Z,103225.56
2023-02-06T11:14:35.896Z,103224.63
2023-02-06T11:16:33.278Z,103229.84
2023-02-06T11:18:33.695Z,103226.47
2023-02-06T11:20:33.420Z,103215.22
2023-02-06T11:22:41.559Z,103225.50
2023-02-06T11:25:02.067Z,103222.88
2023-02-06T11:27:00.438Z,103223.75
2023-02-06T11:29:01.933Z,103222.75
2023-02-06T11:31:01.838Z,103220.09
2023-02-06T11:33:04.652Z,103221.72
2023-02-06T11:35:03.379Z,103217.38
2023-02-06T11:37:06.368Z,103226.88
2023-02-06T11:39:09.551Z,103225.06
2023-02-06T11:41:09.874Z,103232.84
2023-02-06T11:43:19.042Z,103235.59
2023-02-06T11:45:27.660Z,103244.22
2023-02-06T11:47:32.945Z,103245.13
2023-02-06T11:49:30.948Z,103238.06
2023-02-06T11:51:27.316Z,103234.63
2023-02-06T11:53:22.635Z,103235.31
2023-02-06T11:55:24.710Z,103234.28
2023-02-06T11:57:23.772Z,103242.94
2023-02-06T11:59:24.212Z,103239.47
2023-02-06T12:01:22.698Z,103242.75
2023-02-06T12:03:33.296Z,103236.75
2023-02-06T12:05:33.518Z,103235.00
2023-02-06T12:07:33.772Z,103231.47
2023-02-06T12:09:29.267Z,103240.16
2023-02-06T12:11:28.569Z,103233.25
2023-02-06T12:13:28.435Z,103237.50
2023-02-06T12:15:46.621Z,103241.97
2023-02-06T12:18:29.117Z,103239.47
2023-02-06T12:20:31.522Z,103228.13
2023-02-06T12:23:06.066Z,103242.72
2023-02-06T12:25:04.571Z,103243.53
2023-02-06T12:27:03.450Z,103246.91
2023-02-06T12:29:03.468Z,103249.72
2023-02-06T12:31:03.567Z,103251.38
2023-02-06T12:33:06.193Z,103247.28
2023-02-06T12:35:03.619Z,103247.13
2023-02-06T12:37:14.006Z,103249.66
2023-02-06T12:39:19.974Z,103249.63
2023-02-06T12:41:41.674Z,103252.16
2023-02-06T12:43:39.772Z,103256.44
2023-02-06T12:45:46.869Z,103253.72
2023-02-06T12:47:49.275Z,103253.63
2023-02-06T12:49:55.173Z,103256.16
2023-02-06T12:51:57.250Z,103253.50
2023-02-06T12:54:00.208Z,103258.56
2023-02-06T12:56:00.645Z,103257.69
2023-02-06T12:57:57.788Z,103254.63
2023-02-06T13:00:15.725Z,103258.09
2023-02-06T13:02:25.941Z,103259.78
2023-02-06T13:04:23.631Z,103258.88
2023-02-06T13:06:24.148Z,103258.97
2023-02-06T13:08:22.485Z,103258.97
2023-02-06T13:10:29.051Z,103256.47
2023-02-06T13:12:26.355Z,103254.63
2023-02-06T13:14:24.602Z,103261.78
2023-02-06T13:16:19.877Z,103262.50
2023-02-06T13:19:02.815Z,103268.53
2023-02-06T13:21:20.087Z,103267.63
2023-02-06T13:23:26.968Z,103270.19
2023-02-06T13:25:56.463Z,103263.28
2023-02-06T13:27:51.812Z,103276.97
2023-02-06T13:29:48.404Z,103275.91
2023-02-06T13:31:43.394Z,103280.22
2023-02-06T13:33:44.802Z,103275.97
2023-02-06T13:35:57.608Z,103265.50
2023-02-06T13:37:54.383Z,103275.00
2023-02-06T13:39:50.720Z,103274.97
2023-02-06T13:41:48.565Z,103281.03
2023-02-06T13:43:46.983Z,103288.84
2023-02-06T13:45:47.076Z,103293.19
2023-02-06T13:48:07.722Z,103285.41
2023-02-06T13:50:38.196Z,103283.66
2023-02-06T13:52:40.547Z,103298.38
2023-02-06T13:54:53.172Z,103292.22
2023-02-06T13:57:15.950Z,103301.75
2023-02-06T13:59:19.150Z,103302.75
2023-02-06T14:01:17.129Z,103300.97
2023-02-06T14:03:21.259Z,103299.19
2023-02-06T14:05:22.209Z,103300.16
2023-02-06T14:07:43.882Z,103306.25
2023-02-06T14:10:01.211Z,103307.94
2023-02-06T14:12:24.044Z,103310.50
2023-02-06T14:14:33.211Z,103308.78
2023-02-06T14:16:40.029Z,103303.50
2023-02-06T14:18:46.245Z,103300.78
2023-02-06T14:20:52.713Z,103305.88
2023-02-06T14:22:55.836Z,103318.63
2023-02-06T14:25:08.733Z,103322.88
2023-02-06T14:27:23.501Z,103326.28
2023-02-06T14:29:31.301Z,103327.94
2023-02-06T14:31:46.210Z,103334.78
2023-02-06T14:33:57.247Z,103333.97
2023-02-06T14:36:09.307Z,103338.34
2023-02-06T14:38:25.933Z,103342.63
2023-02-06T14:40:24.196Z,103347.63
2023-02-06T14:42:25.456Z,103350.06
2023-02-06T14:44:23.880Z,103349.94
2023-02-06T14:46:22.382Z,103357.41
2023-02-06T14:48:23.034Z,103357.19
2023-02-06T14:50:25.047Z,103365.47
2023-02-06T14:52:24.356Z,103359.78
2023-02-06T14:54:32.930Z,103360.53
2023-02-06T14:56:30.570Z,103360.00
2023-02-06T14:58:32.044Z,103354.50
2023-02-06T15:00:31.838Z,103356.09
2023-02-06T15:02:30.977Z,103361.94
2023-02-06T15:04:29.568Z,103368.00
2023-02-06T15:06:37.760Z,103363.31
2023-02-06T15:08:37.199Z,103364.03
2023-02-06T15:10:34.442Z,103365.00
2023-02-06T15:12:33.233Z,103361.41
2023-02-06T15:14:35.940Z,103361.25
2023-02-06T15:16:33.104Z,103358.72
2023-02-06T15:18:31.313Z,103363.97
2023-02-06T15:20:29.545Z,103380.44
2023-02-06T15:22:28.328Z,103383.22
2023-02-06T15:24:41.436Z,103378.81
2023-02-06T15:26:47.863Z,103375.56
2023-02-06T15:28:44.536Z,103386.16
2023-02-06T15:30:45.592Z,103391.38
2023-02-06T15:32:42.543Z,103398.25
2023-02-06T15:34:40.958Z,103395.69
2023-02-06T15:36:37.769Z,103394.91
2023-02-06T15:38:37.300Z,103400.94
2023-02-06T15:40:39.057Z,103405.53
2023-02-06T15:42:34.832Z,103399.63
2023-02-06T15:44:34.340Z,103401.41
2023-02-06T15:46:34.249Z,103401.69
2023-02-06T15:48:43.934Z,103392.31
2023-02-06T15:50:41.881Z,103399.63
2023-02-06T15:52:42.830Z,103401.72
2023-02-06T15:54:40.317Z,103407.03
2023-02-06T15:56:38.290Z,103411.44
2023-02-06T15:58:34.825Z,103413.16
2023-02-06T16:00:35.065Z,103414.09
2023-02-06T16:02:38.617Z,103417.66
2023-02-06T16:04:38.432Z,103412.53
2023-02-06T16:06:33.904Z,103417.06
2023-02-06T16:08:34.135Z,103411.28
2023-02-06T16:10:40.005Z,103416.84
2023-02-06T16:12:41.681Z,103427.38
2023-02-06T16:14:41.146Z,103430.63
2023-02-06T16:16:36.201Z,103430.50
2023-02-06T16:18:37.956Z,103427.97
2023-02-06T16:20:39.555Z,103427.13
2023-02-06T16:22:39.235Z,103428.91
2023-02-06T16:24:34.391Z,103429.84
2023-02-06T16:26:32.311Z,103432.53
2023-02-06T16:28:29.864Z,103430.94
2023-02-06T16:30:29.633Z,103431.84
2023-02-06T16:32:27.835Z,103432.84
2023-02-06T16:34:37.195Z,103430.16
2023-02-06T16:36:35.158Z,103436.78
2023-02-06T16:38:33.207Z,103438.78
2023-02-06T16:40:29.740Z,103437.97
2023-02-06T16:42:27.296Z,103433.75
2023-02-06T16:44:36.082Z,103442.53
2023-02-06T16:46:38.276Z,103453.97
2023-02-06T16:48:33.594Z,103460.09
2023-02-06T16:50:34.711Z,103461.88
2023-02-06T16:52:35.772Z,103461.91
2023-02-06T16:54:32.895Z,103455.03
2023-02-06T16:56:28.565Z,103468.06
2023-02-06T16:58:30.263Z,103466.38
2023-02-06T17:00:31.270Z,103462.63
2023-02-06T17:02:26.602Z,103470.56
2023-02-06T17:04:21.592Z,103475.91
2023-02-06T17:06:23.592Z,103478.59
2023-02-06T17:08:23.553Z,103477.75
2023-02-06T17:10:21.804Z,103473.53
2023-02-06T17:12:22.472Z,103479.66
2023-02-06T17:14:18.919Z,103476.19
2023-02-06T17:16:18.788Z,103471.88
2023-02-06T17:18:16.517Z,103475.66
2023-02-06T17:20:27.476Z,103480.44
2023-02-06T17:22:30.980Z,103485.81
2023-02-06T17:24:26.094Z,103488.41
2023-02-06T17:26:24.155Z,103478.06
2023-02-06T17:28:23.338Z,103488.63
2023-02-06T17:30:21.761Z,103488.56
2023-02-06T17:32:31.851Z,103487.81
2023-02-06T17:34:33.364Z,103480.03
2023-02-06T17:36:33.175Z,103479.22
2023-02-06T17:38:47.557Z,103493.13
2023-02-06T17:40:45.593Z,103494.88
2023-02-06T17:42:44.167Z,103491.50
2023-02-06T17:44:42.591Z,103494.97
2023-02-06T17:46:40.490Z,103489.78
2023-02-06T17:48:36.718Z,103491.63
2023-02-06T17:50:34.659Z,103486.44
2023-02-06T17:52:31.667Z,103499.44
2023-02-06T17:54:31.239Z,103491.63
2023-02-06T17:56:29.182Z,103493.44
2023-02-06T17:58:24.713Z,103494.31
2023-02-06T18:01:12.619Z,103499.59
2023-02-06T18:03:54.071Z,103490.06
2023-02-06T18:06:00.515Z,103492.72
2023-02-06T18:07:56.211Z,103484.09
2023-02-06T18:09:59.755Z,103490.19
2023-02-06T18:11:55.804Z,103492.81
2023-02-06T18:13:53.737Z,103484.16
2023-02-06T18:16:08.103Z,103500.63
2023-02-06T18:18:04.814Z,103493.72
2023-02-06T18:20:00.282Z,103491.88
2023-02-06T18:21:55.485Z,103494.19
2023-02-06T18:23:54.389Z,103497.84
2023-02-06T18:25:55.413Z,103496.25
2023-02-06T18:27:53.771Z,103504.94
2023-02-06T18:29:52.841Z,103494.59
2023-02-06T18:31:50.097Z,103492.03
2023-02-06T18:33:51.060Z,103490.41
2023-02-06T18:35:50.722Z,103480.88
2023-02-06T18:37:53.869Z,103484.38
2023-02-06T18:39:58.175Z,103486.16
2023-02-06T18:42:08.118Z,103487.03
2023-02-06T18:44:03.922Z,103487.88
2023-02-06T18:45:59.115Z,103482.69
2023-02-06T18:47:55.586Z,103480.13
2023-02-06T18:49:50.596Z,103483.63
2023-02-06T18:51:45.787Z,103487.97
2023-02-06T18:53:41.229Z,103488.09
2023-02-06T18:55:37.323Z,103493.31
2023-02-06T18:57:35.245Z,103490.78
2023-02-06T18:59:30.283Z,103486.50
2023-02-06T19:01:27.452Z,103489.97
2023-02-06T19:03:22.575Z,103491.72
2023-02-06T19:05:18.121Z,103499.50
2023-02-06T19:07:13.742Z,103501.25
2023-02-06T19:09:09.725Z,103511.72
2023-02-06T19:11:04.728Z,103511.78
2023-02-06T19:13:02.689Z,103522.22
2023-02-06T19:14:58.446Z,103512.75
2023-02-06T19:16:55.037Z,103508.41
2023-02-06T19:18:51.761Z,103504.91
2023-02-06T19:20:47.102Z,103500.56
2023-02-06T19:22:42.142Z,103500.53
2023-02-06T19:24:37.404Z,103499.66
2023-02-06T19:26:33.847Z,103508.34
2023-02-06T19:28:31.854Z,103517.03
2023-02-06T19:30:27.009Z,103520.50
2023-02-06T19:32:22.527Z,103517.94
2023-02-06T19:34:17.594Z,103519.66
2023-02-06T19:36:19.480Z,103517.09
2023-02-06T19:38:14.801Z,103517.97
2023-02-06T19:40:10.754Z,103523.16
2023-02-06T19:42:07.099Z,103524.88
2023-02-06T19:44:08.382Z,103526.63
2023-02-06T19:46:05.686Z,103535.28
2023-02-06T19:48:01.055Z,103533.59
2023-02-06T19:49:56.097Z,103539.66
2023-02-06T19:51:51.672Z,103529.28
2023-02-06T19:53:48.052Z,103536.22
2023-02-06T19:55:50.096Z,103545.72
2023-02-06T19:57:45.426Z,103543.13
2023-02-06T19:59:43.776Z,103549.19
2023-02-06T20:01:39.240Z,103551.00
2023-02-06T20:03:34.257Z,103540.63
2023-02-06T20:05:29.361Z,103530.28
2023-02-06T20:07:24.782Z,103531.16
2023-02-06T20:09:21.528Z,103530.31
2023-02-06T20:11:18.902Z,103537.22
2023-02-06T20:13:13.930Z,103539.78
2023-02-06T20:15:12.321Z,103551.00
2023-02-06T20:17:08.370Z,103549.25
2023-02-06T20:19:10.218Z,103550.09
2023-02-06T20:21:06.523Z,103557.00
2023-02-06T20:23:01.885Z,103552.66
2023-02-06T20:24:56.892Z,103554.44
2023-02-06T20:26:55.910Z,103551.84
2023-02-06T20:28:52.229Z,103546.66
2023-02-06T20:30:50.403Z,103552.75
2023-02-06T20:32:45.652Z,103551.88
2023-02-06T20:34:41.071Z,103553.66
2023-02-06T20:36:36.062Z,103557.97
2023-02-06T20:38:31.506Z,103552.75
2023-02-06T20:40:27.328Z,103557.09
2023-02-06T20:42:24.688Z,103552.78
2023-02-06T20:44:21.581Z,103539.81
2023-02-06T20:46:19.985Z,103541.56
2023-02-06T20:48:15.033Z,103547.59
2023-02-06T20:50:11.508Z,103545.03
2023-02-06T20:52:06.549Z,103551.94
2023-02-06T20:54:01.918Z,103558.00
2023-02-06T20:55:59.044Z,103560.63
2023-02-06T20:57:54.033Z,103552.00
2023-02-06T20:59:49.510Z,103557.19
2023-02-06T21:01:47.278Z,103549.41
2023-02-06T21:03:42.610Z,103555.47
2023-02-06T21:05:39.030Z,103564.09
2023-02-06T21:07:34.545Z,103564.97
2023-02-06T21:09:30.271Z,103562.38
2023-02-06T21:11:29.380Z,103571.00
2023-02-06T21:13:24.406Z,103570.16
2023-02-06T21:15:19.545Z,103559.81
2023-02-06T21:17:17.469Z,103559.81
2023-02-06T21:19:14.942Z,103559.81
2023-02-06T21:21:12.888Z,103565.88
2023-02-06T21:23:07.826Z,103570.22
2023-02-06T21:25:03.165Z,103571.94
2023-02-06T21:26:58.167Z,103568.53
2023-02-06T21:28:54.170Z,103573.69
2023-02-06T21:30:49.938Z,103571.97
2023-02-06T21:32:47.545Z,103585.78
2023-02-06T21:34:43.064Z,103585.78
2023-02-06T21:36:40.136Z,103582.34
2023-02-06T21:38:36.000Z,103582.34
2023-02-06T21:40:31.451Z,103585.78
2023-02-06T21:42:27.516Z,103579.72
2023-02-06T21:44:23.806Z,103581.44
2023-02-06T21:46:18.853Z,103584.91
2023-02-06T21:48:16.603Z,103582.34
2023-02-06T21:50:12.177Z,103575.41
2023-02-06T21:52:07.572Z,103562.50
2023-02-06T21:54:02.835Z,103557.31
2023-02-06T21:55:59.115Z,103564.22
2023-02-06T21:57:54.095Z,103558.19
2023-02-06T21:59:49.382Z,103566.81
2023-02-06T22:01:44.426Z,103552.16
2023-02-06T22:03:42.337Z,103548.69
2023-02-06T22:05:37.518Z,103558.16
2023-02-06T22:07:32.878Z,103563.38
2023-02-06T22:09:28.128Z,103564.22
2023-02-06T22:11:25.574Z,103565.97
2023-02-06T22:13:20.814Z,103572.88
2023-02-06T22:15:16.084Z,103571.16
2023-02-06T22:17:11.711Z,103568.53
2023-02-06T22:19:10.447Z,103572.84
2023-02-06T22:21:08.255Z,103571.13
2023-02-06T22:23:03.480Z,103569.41
2023-02-06T22:24:59.074Z,103580.63
2023-02-06T22:26:54.286Z,103582.34
2023-02-06T22:28:50.301Z,103581.50
2023-02-06T22:30:45.526Z,103580.63
2023-02-06T22:32:41.350Z,103584.94
2023-02-06T22:34:39.572Z,103584.09
2023-02-06T22:36:35.890Z,103583.22
2023-02-06T22:38:31.584Z,103586.69
2023-02-06T22:40:26.823Z,103597.88
2023-02-06T22:42:22.463Z,103594.44
2023-02-06T22:44:19.026Z,103599.63
2023-02-06T22:46:20.896Z,103587.56